createdAt,value
2022-08-17T00:00:43.626Z,98207.00
2022-08-17T00:05:43.744Z,98204.91
2022-08-17T00:10:50.617Z,98207.97
2022-08-17T00:15:57.965Z,98206.38
2022-08-17T00:21:02.687Z,98189.88
2022-08-17T00:26:08.842Z,98195.94
2022-08-17T00:31:13.411Z,98190.38
2022-08-17T00:36:17.389Z,98185.63
2022-08-17T00:41:25.957Z,98183.09
2022-08-17T00:46:32.451Z,98189.63
2022-08-17T00:51:43.748Z,98186.47
2022-08-17T00:56:58.161Z,98185.59
2022-08-17T01:02:02.663Z,98187.84
2022-08-17T01:07:08.285Z,98183.81
2022-08-17T01:12:13.681Z,98176.59
2022-08-17T01:17:17.514Z,98168.81
2022-08-17T01:22:24.332Z,98177.09
2022-08-17T01:27:28.851Z,98174.44
2022-08-17T01:32:32.868Z,98176.50
2022-08-17T01:37:40.084Z,98175.69
2022-08-17T01:42:47.921Z,98187.09
2022-08-17T01:47:52.087Z,98191.38
2022-08-17T01:53:01.568Z,98184.56
2022-08-17T01:58:09.669Z,98188.34
2022-08-17T02:03:13.225Z,98185.28
2022-08-17T02:08:20.423Z,98185.47
2022-08-17T02:13:36.054Z,98189.56
2022-08-17T02:18:39.485Z,98183.97
2022-08-17T02:23:48.551Z,98187.56
2022-08-17T02:28:52.175Z,98186.66
2022-08-17T02:34:00.459Z,98191.97
2022-08-17T02:39:12.704Z,98193.69
2022-08-17T02:44:35.487Z,98189.31
2022-08-17T02:49:40.118Z,98200.00
2022-08-17T02:54:45.231Z,98201.75
2022-08-17T02:59:49.239Z,98208.16
2022-08-17T03:04:52.769Z,98216.91
2022-08-17T03:09:57.646Z,98213.69
2022-08-17T03:15:04.582Z,98213.22
2022-08-17T03:20:09.544Z,98225.25
2022-08-17T03:25:16.845Z,98218.72
2022-08-17T03:30:26.242Z,98220.31
2022-08-17T03:35:32.232Z,98209.31
2022-08-17T03:40:59.130Z,98217.06
2022-08-17T03:46:34.266Z,98213.28
2022-08-17T03:51:56.391Z,98227.53
2022-08-17T03:57:06.028Z,98230.47
2022-08-17T04:02:12.955Z,98228.75
2022-08-17T04:07:16.467Z,98232.16
2022-08-17T04:12:23.989Z,98240.03
2022-08-17T04:17:29.279Z,98247.78
2022-08-17T04:22:34.409Z,98245.50
2022-08-17T04:27:39.404Z,98248.13
2022-08-17T04:33:10.584Z,98252.00
2022-08-17T04:38:15.913Z,98258.13
2022-08-17T04:43:22.976Z,98263.81
2022-08-17T04:48:35.332Z,98256.75
2022-08-17T04:53:40.529Z,98258.22
2022-08-17T04:58:46.826Z,98264.00
2022-08-17T05:03:50.667Z,98263.72
2022-08-17T05:08:55.366Z,98275.06
2022-08-17T05:14:00.832Z,98279.09
2022-08-17T05:19:05.202Z,98267.63
2022-08-17T05:24:16.751Z,98276.56
2022-08-17T05:29:35.811Z,98281.34
2022-08-17T05:34:39.434Z,98284.91
2022-08-17T05:39:42.969Z,98275.59
2022-08-17T05:44:48.061Z,98267.19
2022-08-17T05:49:51.649Z,98280.84
2022-08-17T05:55:10.124Z,98285.03
2022-08-17T06:00:20.391Z,98281.63
2022-08-17T06:05:37.359Z,98284.56
2022-08-17T06:10:48.762Z,98292.84
2022-08-17T06:16:03.459Z,98282.38
2022-08-17T06:21:13.204Z,98289.53
2022-08-17T06:26:22.409Z,98289.91
2022-08-17T06:31:36.848Z,98284.34
2022-08-17T06:36:50.688Z,98287.31
2022-08-17T06:42:06.961Z,98292.03
2022-08-17T06:47:15.761Z,98291.16
2022-08-17T06:52:45.316Z,98281.44
2022-08-17T06:57:53.148Z,98281.16
2022-08-17T07:03:03.862Z,98282.97
2022-08-17T07:08:18.710Z,98285.66
2022-08-17T07:13:33.247Z,98278.78
2022-08-17T07:18:38.407Z,98279.53
2022-08-17T07:23:56.260Z,98289.53
2022-08-17T07:29:02.460Z,98289.38
2022-08-17T07:34:14.634Z,98287.50
2022-08-17T07:39:28.948Z,98292.72
2022-08-17T07:44:32.574Z,98283.59
2022-08-17T07:49:41.195Z,98279.94
2022-08-17T07:54:44.705Z,98271.34
2022-08-17T08:00:31.413Z,98267.63
2022-08-17T08:05:50.958Z,98269.69
2022-08-17T08:11:07.783Z,98263.47
2022-08-17T08:16:22.756Z,98270.44
2022-08-17T08:21:47.894Z,98265.28
2022-08-17T08:26:59.418Z,98259.66
2022-08-17T08:32:13.329Z,98268.97
2022-08-17T08:37:34.559Z,98261.63
2022-08-17T08:42:47.152Z,98258.00
2022-08-17T08:48:23.084Z,98255.31
2022-08-17T08:53:48.671Z,98246.38
2022-08-17T08:58:59.534Z,98254.19
2022-08-17T09:04:25.573Z,98255.38
2022-08-17T09:09:48.040Z,98245.44
2022-08-17T09:14:59.607Z,98258.94
2022-08-17T09:20:27.180Z,98251.63
2022-08-17T09:25:43.379Z,98251.03
2022-08-17T09:30:49.490Z,98259.09
2022-08-17T09:35:57.348Z,98244.50
2022-08-17T09:41:17.677Z,98248.34
2022-08-17T09:46:26.667Z,98249.00
2022-08-17T09:51:34.814Z,98255.97
2022-08-17T09:57:11.490Z,98240.63
2022-08-17T10:02:32.437Z,98237.56
2022-08-17T10:07:46.627Z,98239.09
2022-08-17T10:12:58.284Z,98244.94
2022-08-17T10:18:18.501Z,98227.03
2022-08-17T10:23:44.753Z,98229.56
2022-08-17T10:28:53.962Z,98230.63
2022-08-17T10:34:13.251Z,98227.91
2022-08-17T10:39:31.809Z,98226.50
2022-08-17T10:44:50.248Z,98218.78
2022-08-17T10:49:56.107Z,98215.91
2022-08-17T10:55:15.276Z,98217.69
2022-08-17T11:01:02.349Z,98211.44
2022-08-17T11:06:19.526Z,98213.03
2022-08-17T11:12:01.500Z,98204.41
2022-08-17T11:17:16.726Z,98237.78
2022-08-17T11:23:11.504Z,98256.56
2022-08-17T11:28:23.241Z,98233.44
2022-08-17T11:33:57.862Z,98237.84
2022-08-17T11:39:19.461Z,98227.78
2022-08-17T11:44:37.824Z,98221.59
2022-08-17T11:50:15.111Z,98226.47
2022-08-17T11:55:54.284Z,98219.91
2022-08-17T12:01:00.959Z,98214.94
2022-08-17T12:06:08.240Z,98203.91
2022-08-17T12:11:19.044Z,98198.13
2022-08-17T12:16:44.789Z,98204.28
2022-08-17T12:21:53.882Z,98190.47
2022-08-17T12:27:00.246Z,98186.16
2022-08-17T12:32:08.493Z,98187.84
2022-08-17T12:37:16.720Z,98186.34
2022-08-17T12:42:25.812Z,98178.25
2022-08-17T12:47:31.950Z,98168.63
2022-08-17T12:52:39.679Z,98174.16
2022-08-17T12:57:45.887Z,98181.97
2022-08-17T13:02:52.867Z,98166.78
2022-08-17T13:07:58.626Z,98166.47
2022-08-17T13:13:05.460Z,98166.97
2022-08-17T13:18:31.712Z,98169.81
2022-08-17T13:23:35.557Z,98185.19
2022-08-17T13:28:39.156Z,98179.28
2022-08-17T13:33:45.094Z,98173.19
2022-08-17T13:38:51.080Z,98174.34
2022-08-17T13:43:54.657Z,98181.50
2022-08-17T13:49:02.288Z,98171.38
2022-08-17T13:54:20.239Z,98167.03
2022-08-17T13:59:53.900Z,98173.81
2022-08-17T14:04:55.972Z,98172.16
2022-08-17T14:10:02.483Z,98170.66
2022-08-17T14:15:07.780Z,98180.50
2022-08-17T14:20:15.174Z,98192.63
2022-08-17T14:25:21.087Z,98182.88
2022-08-17T14:30:28.991Z,98182.38
2022-08-17T14:41:26.607Z,98182.31
2022-08-17T14:46:30.350Z,98190.47
2022-08-17T14:51:33.831Z,98197.19
2022-08-17T14:56:38.818Z,98196.09
2022-08-17T15:01:43.059Z,98211.53
2022-08-17T15:06:47.470Z,98226.69
2022-08-17T15:11:53.330Z,98231.72
2022-08-17T15:16:56.800Z,98230.44
2022-08-17T15:22:00.395Z,98208.16
2022-08-17T15:27:06.068Z,98201.66
2022-08-17T15:32:09.834Z,98196.13
2022-08-17T15:37:13.695Z,98194.22
2022-08-17T15:42:19.077Z,98182.50
2022-08-17T15:47:23.527Z,98182.94
2022-08-17T15:52:29.799Z,98185.31
2022-08-17T15:57:35.583Z,98193.19
2022-08-17T16:03:20.363Z,98201.59
2022-08-17T16:08:03.276Z,98204.16
2022-08-17T16:13:17.324Z,98205.34
2022-08-17T16:18:21.931Z,98209.13
2022-08-17T16:23:25.725Z,98215.75
2022-08-17T16:28:35.922Z,98263.69
2022-08-17T16:33:40.591Z,98311.19
2022-08-17T16:38:44.585Z,98331.38
2022-08-17T16:43:51.109Z,98282.72
2022-08-17T16:48:54.856Z,98244.94
2022-08-17T16:53:59.476Z,98242.66
2022-08-17T16:59:29.930Z,98256.22
2022-08-17T17:04:35.131Z,98265.81
2022-08-17T17:09:40.339Z,98250.50
2022-08-17T17:14:59.361Z,98265.88
2022-08-17T17:20:09.795Z,98267.19
2022-08-17T17:25:20.593Z,98285.72
2022-08-17T17:30:29.283Z,98289.63
2022-08-17T17:35:37.204Z,98282.06
2022-08-17T17:40:45.021Z,98269.91
2022-08-17T17:45:55.097Z,98267.72
2022-08-17T17:52:08.500Z,98273.38
2022-08-17T17:56:51.621Z,98281.78
2022-08-17T18:02:04.554Z,98293.56
2022-08-17T18:07:18.956Z,98295.84
2022-08-17T18:12:31.824Z,98279.53
2022-08-17T18:17:36.747Z,98283.88
2022-08-17T18:22:40.148Z,98293.38
2022-08-17T18:27:52.374Z,98289.84
2022-08-17T18:33:23.890Z,98294.75
2022-08-17T18:38:30.785Z,98293.25
2022-08-17T18:43:52.867Z,98296.75
2022-08-17T18:49:00.916Z,98302.63
2022-08-17T18:54:15.861Z,98297.59
2022-08-17T18:59:41.106Z,98291.44
2022-08-17T19:05:02.054Z,98285.56
2022-08-17T19:10:46.574Z,98285.84
2022-08-17T19:16:12.248Z,98301.56
2022-08-17T19:21:24.325Z,98302.44
2022-08-17T19:26:53.690Z,98298.59
2022-08-17T19:31:58.929Z,98304.63
2022-08-17T19:37:11.200Z,98307.50
2022-08-17T19:42:33.086Z,98314.00
2022-08-17T19:47:55.125Z,98314.31
2022-08-17T19:53:09.621Z,98319.59
2022-08-17T19:58:34.656Z,98319.31
2022-08-17T20:03:52.214Z,98313.91
2022-08-17T20:09:02.573Z,98319.59
2022-08-17T20:14:11.284Z,98312.94
2022-08-17T20:19:23.791Z,98318.84
2022-08-17T20:24:38.223Z,98322.38
2022-08-17T20:30:10.674Z,98324.94
2022-08-17T20:35:24.559Z,98323.78
2022-08-17T20:40:36.407Z,98317.19
2022-08-17T20:46:07.791Z,98327.03
2022-08-17T20:51:19.365Z,98324.94
2022-08-17T20:56:50.538Z,98332.44
2022-08-17T21:02:19.036Z,98324.75
2022-08-17T21:07:30.178Z,98322.00
2022-08-17T21:12:43.578Z,98328.56
2022-08-17T21:17:51.598Z,98326.28
2022-08-17T21:23:12.345Z,98321.72
2022-08-17T21:28:33.925Z,98332.94
2022-08-17T21:33:40.874Z,98335.00
2022-08-17T21:38:57.799Z,98341.84
2022-08-17T21:44:12.353Z,98333.50
2022-08-17T21:49:18.026Z,98338.53
2022-08-17T21:54:31.428Z,98329.72
2022-08-17T21:59:40.073Z,98329.34
2022-08-17T22:04:44.501Z,98329.50
2022-08-17T22:09:50.124Z,98321.09
2022-08-17T22:15:02.614Z,98320.78
2022-08-17T22:20:10.632Z,98326.75
2022-08-17T22:25:25.923Z,98317.84
2022-08-17T22:30:42.552Z,98330.56
2022-08-17T22:35:47.974Z,98325.63
2022-08-17T22:40:53.969Z,98327.81
2022-08-17T22:46:01.038Z,98322.31
2022-08-17T22:51:12.882Z,98319.47
2022-08-17T22:56:37.692Z,98319.66
2022-08-17T23:01:43.781Z,98316.91
2022-08-17T23:06:47.161Z,98318.72
2022-08-17T23:11:55.571Z,98300.78
2022-08-17T23:17:00.826Z,98307.44
2022-08-17T23:22:07.911Z,98312.19
2022-08-17T23:27:12.232Z,98315.50
2022-08-17T23:32:19.562Z,98317.19
2022-08-17T23:37:23.013Z,98315.41
2022-08-17T23:42:27.658Z,98323.81
2022-08-17T23:47:32.812Z,98319.66
2022-08-17T23:52:37.923Z,98323.47
2022-08-17T23:57:41.690Z,98320.72
